sensor_id;sensor_type;location;lat;lon;timestamp;P1;durP1;ratioP1;P2;durP2;ratioP2
51584;SDS011;37669;50.312;18.670;2022-09-29T04:09:47;430.58;;;128.00;;
51584;SDS011;37669;50.312;18.670;2022-09-29T04:12:14;190.50;;;84.20;;
51584;SDS011;37669;50.312;18.670;2022-09-29T04:14:41;289.25;;;100.78;;
51584;SDS011;37669;50.312;18.670;2022-09-29T04:17:09;121.05;;;70.45;;
51584;SDS011;37669;50.312;18.670;2022-09-29T04:19:36;159.52;;;80.15;;
51584;SDS011;37669;50.312;18.670;2022-09-29T04:22:03;104.47;;;64.53;;
51584;SDS011;37669;50.312;18.670;2022-09-29T04:24:30;155.18;;;74.72;;
51584;SDS011;37669;50.312;18.670;2022-09-29T04:26:59;136.43;;;71.72;;
51584;SDS011;37669;50.312;18.670;2022-09-29T04:29:26;192.68;;;81.75;;
51584;SDS011;37669;50.312;18.670;2022-09-29T04:31:53;192.98;;;78.43;;
51584;SDS011;37669;50.312;18.670;2022-09-29T04:34:20;142.95;;;71.88;;
51584;SDS011;37669;50.312;18.670;2022-09-29T04:36:47;248.13;;;92.82;;
51584;SDS011;37669;50.312;18.670;2022-09-29T04:39:14;200.00;;;85.85;;
51584;SDS011;37669;50.312;18.670;2022-09-29T04:41:41;125.40;;;68.05;;
51584;SDS011;37669;50.312;18.670;2022-09-29T04:44:10;105.00;;;62.22;;
51584;SDS011;37669;50.312;18.670;2022-09-29T04:46:37;134.77;;;68.97;;
51584;SDS011;37669;50.312;18.670;2022-09-29T04:49:04;202.98;;;83.57;;
51584;SDS011;37669;50.312;18.670;2022-09-29T04:51:31;293.88;;;98.28;;
51584;SDS011;37669;50.312;18.670;2022-09-29T04:53:59;256.25;;;97.03;;
51584;SDS011;37669;50.312;18.670;2022-09-29T04:56:26;199.02;;;87.38;;
51584;SDS011;37669;50.312;18.670;2022-09-29T04:58:55;276.05;;;99.95;;
51584;SDS011;37669;50.312;18.670;2022-09-29T05:01:24;311.33;;;104.53;;
51584;SDS011;37669;50.312;18.670;2022-09-29T05:03:51;349.77;;;112.20;;
51584;SDS011;37669;50.312;18.670;2022-09-29T05:06:18;340.65;;;111.40;;
51584;SDS011;37669;50.312;18.670;2022-09-29T05:08:45;382.67;;;117.03;;
51584;SDS011;37669;50.312;18.670;2022-09-29T05:11:13;210.15;;;91.72;;
51584;SDS011;37669;50.312;18.670;2022-09-29T05:13:40;153.68;;;80.50;;
51584;SDS011;37669;50.312;18.670;2022-09-29T05:16:07;149.80;;;79.35;;
51584;SDS011;37669;50.312;18.670;2022-09-29T05:18:36;140.10;;;77.10;;
51584;SDS011;37669;50.312;18.670;2022-09-29T05:21:03;137.38;;;74.82;;
51584;SDS011;37669;50.312;18.670;2022-09-29T05:23:31;112.78;;;67.43;;
51584;SDS011;37669;50.312;18.670;2022-09-29T05:26:02;119.18;;;70.10;;
51584;SDS011;37669;50.312;18.670;2022-09-29T05:28:30;128.82;;;83.05;;
51584;SDS011;37669;50.312;18.670;2022-09-29T05:30:59;208.63;;;110.90;;
51584;SDS011;37669;50.312;18.670;2022-09-29T05:33:27;200.80;;;110.88;;
51584;SDS011;37669;50.312;18.670;2022-09-29T05:35:56;227.57;;;109.43;;
51584;SDS011;37669;50.312;18.670;2022-09-29T05:38:23;164.90;;;99.97;;
51584;SDS011;37669;50.312;18.670;2022-09-29T05:40:50;169.13;;;97.85;;
51584;SDS011;37669;50.312;18.670;2022-09-29T05:43:18;424.00;;;150.25;;
51584;SDS011;37669;50.312;18.670;2022-09-29T05:45:46;192.80;;;102.03;;
51584;SDS011;37669;50.312;18.670;2022-09-29T05:48:13;188.57;;;97.80;;
51584;SDS011;37669;50.312;18.670;2022-09-29T05:50:40;244.50;;;109.05;;
51584;SDS011;37669;50.312;18.670;2022-09-29T05:53:09;212.48;;;103.65;;
51584;SDS011;37669;50.312;18.670;2022-09-29T05:55:36;169.35;;;98.18;;
51584;SDS011;37669;50.312;18.670;2022-09-29T05:58:04;259.23;;;112.30;;
51584;SDS011;37669;50.312;18.670;2022-09-29T06:00:31;164.80;;;95.10;;
51584;SDS011;37669;50.312;18.670;2022-09-29T06:02:59;279.30;;;126.75;;
51584;SDS011;37669;50.312;18.670;2022-09-29T06:05:27;194.55;;;107.55;;
51584;SDS011;37669;50.312;18.670;2022-09-29T06:08:00;178.40;;;103.63;;
51584;SDS011;37669;50.312;18.670;2022-09-29T12:46:58;11.10;;;8.95;;
51584;SDS011;37669;50.312;18.670;2022-09-29T12:49:32;19.90;;;9.77;;
51584;SDS011;37669;50.312;18.670;2022-09-29T12:52:08;15.00;;;9.38;;
51584;SDS011;37669;50.312;18.670;2022-09-29T12:54:41;17.15;;;10.25;;
51584;SDS011;37669;50.312;18.670;2022-09-29T12:57:16;15.40;;;9.77;;
51584;SDS011;37669;50.312;18.670;2022-09-29T12:59:48;15.23;;;10.13;;
51584;SDS011;37669;50.312;18.670;2022-09-29T13:02:37;24.70;;;10.80;;
51584;SDS011;37669;50.312;18.670;2022-09-29T13:05:37;19.17;;;11.55;;
51584;SDS011;37669;50.312;18.670;2022-09-29T13:08:35;18.75;;;11.60;;
51584;SDS011;37669;50.312;18.670;2022-09-29T13:11:15;25.23;;;11.18;;
51584;SDS011;37669;50.312;18.670;2022-09-29T13:14:04;14.73;;;10.90;;
51584;SDS011;37669;50.312;18.670;2022-09-29T13:16:58;18.90;;;11.82;;
51584;SDS011;37669;50.312;18.670;2022-09-29T13:22:34;18.95;;;10.75;;
51584;SDS011;37669;50.312;18.670;2022-09-29T13:25:17;16.13;;;10.73;;
51584;SDS011;37669;50.312;18.670;2022-09-29T13:27:50;17.85;;;10.60;;
51584;SDS011;37669;50.312;18.670;2022-09-29T13:30:20;28.73;;;11.18;;
51584;SDS011;37669;50.312;18.670;2022-09-29T13:32:52;26.52;;;11.50;;
51584;SDS011;37669;50.312;18.670;2022-09-29T13:35:24;18.17;;;10.70;;
51584;SDS011;37669;50.312;18.670;2022-09-29T13:37:52;19.40;;;10.88;;
51584;SDS011;37669;50.312;18.670;2022-09-29T13:40:28;22.60;;;10.98;;
51584;SDS011;37669;50.312;18.670;2022-09-29T13:42:56;23.95;;;11.20;;
51584;SDS011;37669;50.312;18.670;2022-09-29T13:45:35;15.00;;;9.77;;
51584;SDS011;37669;50.312;18.670;2022-09-29T13:51:24;19.48;;;12.05;;
51584;SDS011;37669;50.312;18.670;2022-09-29T13:54:18;21.77;;;11.43;;
51584;SDS011;37669;50.312;18.670;2022-09-29T13:56:48;21.85;;;11.07;;
51584;SDS011;37669;50.312;18.670;2022-09-29T13:59:19;19.95;;;11.10;;
51584;SDS011;37669;50.312;18.670;2022-09-29T14:01:48;29.30;;;12.27;;
51584;SDS011;37669;50.312;18.670;2022-09-29T14:04:31;16.02;;;11.07;;
51584;SDS011;37669;50.312;18.670;2022-09-29T14:07:02;24.67;;;10.95;;
51584;SDS011;37669;50.312;18.670;2022-09-29T14:09:31;21.92;;;11.00;;
51584;SDS011;37669;50.312;18.670;2022-09-29T14:12:02;27.58;;;11.43;;
51584;SDS011;37669;50.312;18.670;2022-09-29T14:14:34;37.42;;;12.00;;
51584;SDS011;37669;50.312;18.670;2022-09-29T14:17:08;21.55;;;12.90;;
51584;SDS011;37669;50.312;18.670;2022-09-29T14:19:41;20.52;;;11.38;;
51584;SDS011;37669;50.312;18.670;2022-09-29T14:28:24;18.52;;;11.10;;
51584;SDS011;37669;50.312;18.670;2022-09-29T14:31:00;28.20;;;12.50;;
51584;SDS011;37669;50.312;18.670;2022-09-29T14:33:33;24.00;;;12.25;;
51584;SDS011;37669;50.312;18.670;2022-09-29T14:36:05;23.35;;;12.32;;
51584;SDS011;37669;50.312;18.670;2022-09-29T14:38:38;21.27;;;11.80;;
51584;SDS011;37669;50.312;18.670;2022-09-29T14:41:21;21.95;;;12.63;;
51584;SDS011;37669;50.312;18.670;2022-09-29T14:43:57;19.67;;;13.00;;
51584;SDS011;37669;50.312;18.670;2022-09-29T14:46:39;17.08;;;12.35;;
51584;SDS011;37669;50.312;18.670;2022-09-29T14:49:47;22.02;;;12.90;;
51584;SDS011;37669;50.312;18.670;2022-09-29T14:53:05;20.98;;;13.25;;
51584;SDS011;37669;50.312;18.670;2022-09-29T14:55:44;21.02;;;15.50;;
51584;SDS011;37669;50.312;18.670;2022-09-29T14:58:25;29.95;;;17.20;;
51584;SDS011;37669;50.312;18.670;2022-09-29T15:01:07;31.05;;;16.77;;
51584;SDS011;37669;50.312;18.670;2022-09-29T15:03:42;22.55;;;14.68;;
51584;SDS011;37669;50.312;18.670;2022-09-29T15:06:13;27.88;;;15.05;;
51584;SDS011;37669;50.312;18.670;2022-09-29T15:08:41;26.20;;;14.45;;
51584;SDS011;37669;50.312;18.670;2022-09-29T15:11:24;25.08;;;15.27;;
51584;SDS011;37669;50.312;18.670;2022-09-29T15:13:58;23.80;;;14.07;;
51584;SDS011;37669;50.312;18.670;2022-09-29T15:16:28;32.35;;;14.85;;
51584;SDS011;37669;50.312;18.670;2022-09-29T15:19:14;25.48;;;15.27;;
51584;SDS011;37669;50.312;18.670;2022-09-29T15:22:04;28.60;;;15.10;;
51584;SDS011;37669;50.312;18.670;2022-09-29T15:24:49;24.92;;;13.98;;
51584;SDS011;37669;50.312;18.670;2022-09-29T15:27:28;22.15;;;13.07;;
51584;SDS011;37669;50.312;18.670;2022-09-29T15:30:00;28.58;;;15.50;;
51584;SDS011;37669;50.312;18.670;2022-09-29T15:32:27;23.52;;;15.15;;
51584;SDS011;37669;50.312;18.670;2022-09-29T15:35:00;28.73;;;13.95;;
51584;SDS011;37669;50.312;18.670;2022-09-29T15:37:36;28.50;;;15.23;;
51584;SDS011;37669;50.312;18.670;2022-09-29T15:40:22;27.42;;;15.68;;
51584;SDS011;37669;50.312;18.670;2022-09-29T15:42:51;27.25;;;15.55;;
51584;SDS011;37669;50.312;18.670;2022-09-29T15:45:22;29.58;;;15.35;;
51584;SDS011;37669;50.312;18.670;2022-09-29T15:47:57;32.03;;;17.42;;
51584;SDS011;37669;50.312;18.670;2022-09-29T15:50:27;27.30;;;16.98;;
51584;SDS011;37669;50.312;18.670;2022-09-29T15:52:56;31.42;;;16.92;;
51584;SDS011;37669;50.312;18.670;2022-09-29T15:55:27;31.25;;;18.80;;
51584;SDS011;37669;50.312;18.670;2022-09-29T15:57:56;31.52;;;17.02;;
51584;SDS011;37669;50.312;18.670;2022-09-29T16:03:25;31.33;;;19.70;;
51584;SDS011;37669;50.312;18.670;2022-09-29T16:05:59;31.73;;;18.67;;
51584;SDS011;37669;50.312;18.670;2022-09-29T16:08:30;32.42;;;19.55;;
51584;SDS011;37669;50.312;18.670;2022-09-29T16:11:02;28.80;;;18.35;;
51584;SDS011;37669;50.312;18.670;2022-09-29T16:13:32;27.30;;;18.20;;
51584;SDS011;37669;50.312;18.670;2022-09-29T16:16:03;28.63;;;17.17;;
51584;SDS011;37669;50.312;18.670;2022-09-29T16:18:36;32.42;;;17.40;;
51584;SDS011;37669;50.312;18.670;2022-09-29T16:21:07;26.98;;;17.67;;
51584;SDS011;37669;50.312;18.670;2022-09-29T16:23:36;30.13;;;18.45;;
51584;SDS011;37669;50.312;18.670;2022-09-29T16:26:08;28.70;;;18.13;;
51584;SDS011;37669;50.312;18.670;2022-09-29T16:28:57;36.67;;;17.95;;
51584;SDS011;37669;50.312;18.670;2022-09-29T16:31:42;32.00;;;20.10;;
51584;SDS011;37669;50.312;18.670;2022-09-29T16:34:20;31.42;;;19.27;;
51584;SDS011;37669;50.312;18.670;2022-09-29T16:36:50;42.17;;;21.63;;
51584;SDS011;37669;50.312;18.670;2022-09-29T16:39:19;36.72;;;21.52;;
51584;SDS011;37669;50.312;18.670;2022-09-29T16:41:48;33.65;;;21.13;;
